Terminal Aerodrome Forecast
Issued by NWS

Home | Current Version | Previous Version | Text Only | Print | Product List | Glossary On
Versions: 1 2 3 4 5 6 7 8 9 10 11 12 13 14 15 16 17 18 19 20 21 22 23 24 25 26 27 28 29 30 31 32
000
FTUS45 KGJT 202341
TAFASE
TAF
KASE 202341Z 2100/2124 33004KT P6SM VCTS SCT070CB BKN100
      TEMPO 2101/2105 VRB10G20KT -TSRA BKN070CB
     FM210500 17005KT P6SM VCSH OVC060
     FM210800 17004KT P6SM BKN090
     FM211100 17005KT P6SM SCT030
     FM211600 29004KT P6SM VCSH BKN150
     FM212000 12004KT P6SM VCTS SCT060CB OVC090=

USA.gov is the U.S. government's official web portal to all federal, state and local government web resources and services.